createdAt,value
2022-10-06T00:00:54.331Z,100696.03
2022-10-06T00:03:23.155Z,100695.44
2022-10-06T00:05:51.347Z,100701.44
2022-10-06T00:08:19.701Z,100694.59
2022-10-06T00:10:47.343Z,100695.41
2022-10-06T00:13:14.974Z,100697.06
2022-10-06T00:15:42.621Z,100693.97
2022-10-06T00:18:11.607Z,100697.50
2022-10-06T00:20:39.347Z,100694.81
2022-10-06T00:23:06.944Z,100700.25
2022-10-06T00:25:34.592Z,100696.34
2022-10-06T00:28:02.272Z,100695.72
2022-10-06T00:30:31.640Z,100696.75
2022-10-06T00:33:00.951Z,100708.19
2022-10-06T00:35:33.596Z,100713.38
2022-10-06T00:38:01.471Z,100716.06
2022-10-06T00:40:29.972Z,100718.97
2022-10-06T00:42:59.663Z,100727.28
2022-10-06T00:45:32.570Z,100720.44
2022-10-06T00:48:04.354Z,100733.31
2022-10-06T00:50:34.177Z,100739.72
2022-10-06T00:53:02.960Z,100745.97
2022-10-06T00:55:30.981Z,100752.84
2022-10-06T00:57:59.755Z,100755.59
2022-10-06T01:00:30.114Z,100766.81
2022-10-06T01:03:02.603Z,100763.94
2022-10-06T01:05:35.411Z,100764.16
2022-10-06T01:08:03.165Z,100765.41
2022-10-06T01:10:30.823Z,100763.94
2022-10-06T01:12:58.509Z,100767.09
2022-10-06T01:15:28.573Z,100771.81
2022-10-06T01:18:02.115Z,100769.78
2022-10-06T01:20:29.956Z,100773.50
2022-10-06T01:23:03.755Z,100770.19
2022-10-06T01:25:32.336Z,100770.41
2022-10-06T01:28:01.922Z,100776.44
2022-10-06T01:30:32.440Z,100781.84
2022-10-06T01:33:00.252Z,100789.53
2022-10-06T01:35:27.817Z,100791.19
2022-10-06T01:37:58.707Z,100801.81
2022-10-06T01:40:29.239Z,100799.94
2022-10-06T01:42:56.940Z,100798.06
2022-10-06T01:45:24.650Z,100815.94
2022-10-06T01:47:52.830Z,100807.81
2022-10-06T01:50:20.612Z,100822.97
2022-10-06T01:52:48.208Z,100825.28
2022-10-06T01:55:17.161Z,100824.25
2022-10-06T01:57:46.134Z,100835.06
2022-10-06T02:00:14.367Z,100840.25
2022-10-06T02:02:43.671Z,100849.81
2022-10-06T02:05:11.616Z,100850.25
2022-10-06T02:07:39.869Z,100856.69
2022-10-06T02:10:08.323Z,100856.69
2022-10-06T02:12:36.069Z,100857.94
2022-10-06T02:15:06.192Z,100858.34
2022-10-06T02:17:33.877Z,100871.88
2022-10-06T02:20:01.584Z,100882.47
2022-10-06T02:22:29.156Z,100900.59
2022-10-06T02:24:56.952Z,100904.31
2022-10-06T02:27:24.728Z,100907.25
2022-10-06T02:29:52.314Z,100913.28
2022-10-06T02:32:21.262Z,100910.16
2022-10-06T02:34:49.813Z,100915.16
2022-10-06T02:37:17.457Z,100919.75
2022-10-06T02:39:45.195Z,100931.19
2022-10-06T02:42:12.737Z,100922.25
2022-10-06T02:44:40.307Z,100927.78
2022-10-06T02:47:13.983Z,100930.28
2022-10-06T02:49:43.003Z,100940.72
2022-10-06T02:52:11.107Z,100933.41
2022-10-06T02:54:38.911Z,100945.69
2022-10-06T02:57:06.532Z,100943.16
2022-10-06T02:59:34.460Z,100943.16
2022-10-06T03:02:08.221Z,100957.09
2022-10-06T03:04:35.854Z,100960.00
2022-10-06T03:07:04.886Z,100958.97
2022-10-06T03:09:32.768Z,100961.06
2022-10-06T03:12:00.442Z,100963.78
2022-10-06T03:14:28.083Z,100973.31
2022-10-06T03:16:56.873Z,100978.50
2022-10-06T03:19:24.717Z,100985.41
2022-10-06T03:21:52.396Z,100988.50
2022-10-06T03:24:21.406Z,100997.47
2022-10-06T03:26:49.005Z,101007.19
2022-10-06T03:29:16.796Z,101004.53
2022-10-06T03:31:44.925Z,101006.38
2022-10-06T03:34:13.494Z,101005.97
2022-10-06T03:36:41.212Z,101016.34
2022-10-06T03:39:09.212Z,101014.28
2022-10-06T03:41:39.534Z,101014.47
2022-10-06T03:44:07.244Z,101027.16
2022-10-06T03:46:37.076Z,101028.38
2022-10-06T03:49:05.152Z,101037.09
2022-10-06T03:51:34.362Z,101041.69
2022-10-06T03:54:02.452Z,101051.03
2022-10-06T03:56:31.483Z,101051.88
2022-10-06T03:59:02.320Z,101053.31
2022-10-06T04:01:31.534Z,101063.72
2022-10-06T04:04:00.734Z,101062.28
2022-10-06T04:06:29.771Z,101064.59
2022-10-06T04:08:58.053Z,101055.22
2022-10-06T04:11:27.099Z,101059.19
2022-10-06T04:13:58.054Z,101061.84
2022-10-06T04:16:29.338Z,101071.19
2022-10-06T04:18:59.648Z,101072.25
2022-10-06T04:21:28.669Z,101082.63
2022-10-06T04:23:57.790Z,101083.41
2022-10-06T04:26:31.427Z,101090.53
2022-10-06T04:29:00.542Z,101091.56
2022-10-06T04:31:31.023Z,101099.88
2022-10-06T04:33:59.984Z,101101.09
2022-10-06T04:36:29.240Z,101094.47
2022-10-06T04:38:59.202Z,101098.56
2022-10-06T04:41:28.927Z,101106.41
2022-10-06T04:43:56.960Z,101105.31
2022-10-06T04:46:43.785Z,101106.94
2022-10-06T04:49:19.493Z,101113.38
2022-10-06T04:51:48.539Z,101126.88
2022-10-06T04:54:16.181Z,101129.19
2022-10-06T04:56:43.811Z,101130.41
2022-10-06T04:59:11.564Z,101136.06
2022-10-06T05:01:39.197Z,101133.03
2022-10-06T05:04:10.096Z,101134.88
2022-10-06T05:06:41.219Z,101136.28
2022-10-06T05:09:10.679Z,101145.84
2022-10-06T05:11:39.107Z,101142.56
2022-10-06T05:14:06.836Z,101152.78
2022-10-06T05:16:36.982Z,101154.06
2022-10-06T05:19:04.833Z,101163.13
2022-10-06T05:21:33.746Z,101166.22
2022-10-06T05:24:03.517Z,101166.03
2022-10-06T05:26:33.751Z,101172.19
2022-10-06T05:29:01.647Z,101180.66
2022-10-06T05:31:31.544Z,101182.44
2022-10-06T05:34:00.497Z,101182.94
2022-10-06T05:36:30.471Z,101191.47
2022-10-06T05:38:59.506Z,101201.44
2022-10-06T05:41:30.054Z,101211.38
2022-10-06T05:43:58.510Z,101216.22
2022-10-06T05:46:28.393Z,101225.50
2022-10-06T05:48:57.436Z,101226.13
2022-10-06T05:51:30.595Z,101233.84
2022-10-06T05:53:59.047Z,101226.03
2022-10-06T05:56:29.651Z,101236.31
2022-10-06T05:58:59.231Z,101245.06
2022-10-06T06:01:28.447Z,101237.56
2022-10-06T06:03:59.361Z,101242.22
2022-10-06T06:06:28.948Z,101251.78
2022-10-06T06:08:58.616Z,101267.56
2022-10-06T06:11:28.228Z,101263.59
2022-10-06T06:13:57.735Z,101284.16
2022-10-06T06:16:25.845Z,101288.38
2022-10-06T06:18:53.893Z,101280.69
2022-10-06T06:21:21.838Z,101277.16
2022-10-06T06:23:50.525Z,101278.53
2022-10-06T06:26:19.824Z,101292.97
2022-10-06T06:28:50.840Z,101289.41
2022-10-06T06:31:21.126Z,101291.78
2022-10-06T06:33:51.511Z,101299.25
2022-10-06T06:36:21.220Z,101303.22
2022-10-06T06:38:52.097Z,101306.13
2022-10-06T06:41:24.225Z,101313.25
2022-10-06T06:43:55.176Z,101320.63
2022-10-06T06:46:25.241Z,101334.59
2022-10-06T06:48:55.882Z,101337.00
2022-10-06T06:51:24.368Z,101343.50
2022-10-06T06:53:52.683Z,101347.13
2022-10-06T06:56:21.776Z,101348.78
2022-10-06T06:58:50.184Z,101343.56
2022-10-06T07:01:21.099Z,101346.38
2022-10-06T07:03:58.390Z,101359.06
2022-10-06T07:06:29.217Z,101364.81
2022-10-06T07:08:58.799Z,101362.03
2022-10-06T07:11:29.138Z,101361.03
2022-10-06T07:13:59.470Z,101362.91
2022-10-06T07:16:46.895Z,101363.88
2022-10-06T07:19:33.074Z,101356.53
2022-10-06T07:22:19.904Z,101365.38
2022-10-06T07:25:05.747Z,101368.44
2022-10-06T07:27:35.658Z,101365.66
2022-10-06T07:30:03.872Z,101375.19
2022-10-06T07:32:32.852Z,101384.34
2022-10-06T07:35:04.200Z,101382.69
2022-10-06T07:37:31.841Z,101382.03
2022-10-06T07:40:02.605Z,101385.28
2022-10-06T07:42:30.299Z,101381.97
2022-10-06T07:45:15.697Z,101390.03
2022-10-06T07:47:44.767Z,101398.59
2022-10-06T07:50:12.923Z,101393.25
2022-10-06T07:52:40.516Z,101391.78
2022-10-06T07:55:08.997Z,101403.31
2022-10-06T07:57:36.619Z,101405.66
2022-10-06T08:00:07.275Z,101406.50
2022-10-06T08:02:36.118Z,101409.03
2022-10-06T08:05:07.136Z,101416.91
2022-10-06T08:07:34.820Z,101415.13
2022-10-06T08:10:02.421Z,101419.00
2022-10-06T08:12:37.665Z,101426.06
2022-10-06T08:15:07.687Z,101422.34
2022-10-06T08:17:37.158Z,101439.47
2022-10-06T08:20:07.932Z,101444.97
2022-10-06T08:22:36.251Z,101444.56
2022-10-06T08:25:06.582Z,101446.06
2022-10-06T08:27:35.705Z,101444.06
2022-10-06T08:30:03.978Z,101449.03
2022-10-06T08:32:32.088Z,101458.88
2022-10-06T08:34:59.921Z,101439.03
2022-10-06T08:37:28.808Z,101456.13
2022-10-06T08:39:57.140Z,101460.25
2022-10-06T08:42:33.113Z,101465.41
2022-10-06T08:45:03.127Z,101471.53
2022-10-06T08:47:35.540Z,101480.56
2022-10-06T08:50:05.965Z,101482.25
2022-10-06T08:52:47.994Z,101478.50
2022-10-06T08:55:29.165Z,101484.78
2022-10-06T09:00:43.377Z,101493.66
2022-10-06T09:03:23.653Z,101492.56
2022-10-06T09:05:54.037Z,101488.38
2022-10-06T09:08:39.609Z,101496.97
2022-10-06T09:11:20.986Z,101490.22
2022-10-06T09:13:55.163Z,101493.47
2022-10-06T09:16:28.990Z,101498.13
2022-10-06T09:19:08.763Z,101503.94
2022-10-06T09:21:42.447Z,101508.88
2022-10-06T09:24:16.458Z,101513.09
2022-10-06T09:26:46.409Z,101511.44
2022-10-06T09:29:14.980Z,101511.09
2022-10-06T09:31:44.435Z,101516.91
2022-10-06T09:34:21.076Z,101504.78
2022-10-06T09:37:02.086Z,101503.34
2022-10-06T09:39:36.427Z,101511.28
2022-10-06T09:42:11.811Z,101509.63
2022-10-06T09:44:47.980Z,101518.81
2022-10-06T09:47:25.309Z,101526.31
2022-10-06T09:50:14.404Z,101517.75
2022-10-06T09:52:43.002Z,101512.53
2022-10-06T09:55:14.842Z,101515.88
2022-10-06T09:57:50.027Z,101517.31
2022-10-06T10:00:28.068Z,101516.72
2022-10-06T10:02:59.931Z,101521.72
2022-10-06T10:05:29.845Z,101512.31
2022-10-06T10:08:06.229Z,101515.25
2022-10-06T10:10:36.968Z,101518.56
2022-10-06T10:13:17.697Z,101515.28
2022-10-06T10:15:54.341Z,101516.91
2022-10-06T10:18:26.626Z,101513.34
2022-10-06T10:20:57.565Z,101512.31
2022-10-06T10:23:31.633Z,101510.84
2022-10-06T10:26:18.737Z,101517.94
2022-10-06T10:29:33.129Z,101513.78
2022-10-06T10:32:09.767Z,101514.59
2022-10-06T10:34:51.158Z,101515.88
2022-10-06T10:37:24.324Z,101511.47
2022-10-06T10:39:55.496Z,101516.69
2022-10-06T10:42:30.809Z,101513.34
2022-10-06T10:45:02.357Z,101520.44
2022-10-06T10:47:35.114Z,101524.59
2022-10-06T10:50:08.734Z,101519.38
2022-10-06T10:52:42.145Z,101524.19
2022-10-06T10:55:23.162Z,101516.44
2022-10-06T10:57:54.894Z,101519.78
2022-10-06T11:00:25.316Z,101514.16
2022-10-06T11:02:55.594Z,101518.53
2022-10-06T11:05:37.527Z,101521.66
2022-10-06T11:08:13.443Z,101522.69
2022-10-06T11:10:47.582Z,101517.22
2022-10-06T11:13:24.026Z,101525.22
2022-10-06T11:16:05.074Z,101525.00
2022-10-06T11:18:48.784Z,101514.81
2022-10-06T11:21:21.867Z,101514.16
2022-10-06T11:23:56.740Z,101510.00
2022-10-06T11:26:42.504Z,101497.50
2022-10-06T11:29:23.933Z,101504.38
2022-10-06T11:32:01.782Z,101509.81
2022-10-06T11:34:29.476Z,101509.97
2022-10-06T11:37:01.730Z,101506.41
2022-10-06T11:39:40.004Z,101504.13
2022-10-06T11:42:17.798Z,101501.19
2022-10-06T11:44:52.432Z,101495.53
2022-10-06T11:47:35.156Z,101493.25
2022-10-06T11:50:03.756Z,101492.63
2022-10-06T11:52:55.252Z,101497.03
2022-10-06T11:55:26.264Z,101491.00
2022-10-06T11:58:43.046Z,101485.78
2022-10-06T12:01:03.038Z,101485.16
2022-10-06T12:04:10.967Z,101475.16
2022-10-06T12:06:57.275Z,101481.59
2022-10-06T12:09:41.315Z,101477.22
2022-10-06T12:13:06.540Z,101460.94
2022-10-06T12:19:16.876Z,101473.88
2022-10-06T12:22:01.827Z,101468.59
2022-10-06T12:24:37.911Z,101476.31
2022-10-06T12:27:25.878Z,101467.31
2022-10-06T12:29:59.340Z,101467.75
2022-10-06T12:32:44.435Z,101462.31
2022-10-06T12:35:26.029Z,101461.28
2022-10-06T12:37:55.056Z,101458.31
2022-10-06T12:40:55.372Z,101454.56
2022-10-06T12:43:32.833Z,101449.31
2022-10-06T12:46:08.134Z,101457.09
2022-10-06T12:48:43.074Z,101457.09
2022-10-06T12:51:23.396Z,101460.06
2022-10-06T12:53:57.039Z,101459.56
2022-10-06T12:56:29.528Z,101457.94
2022-10-06T12:58:57.211Z,101455.00
2022-10-06T13:01:26.832Z,101456.22
2022-10-06T13:03:56.184Z,101450.53
2022-10-06T13:06:26.172Z,101449.84
2022-10-06T13:09:06.776Z,101442.84
2022-10-06T13:11:34.486Z,101446.16
2022-10-06T13:14:10.970Z,101449.91
2022-10-06T13:16:41.625Z,101446.38
2022-10-06T13:19:21.415Z,101439.91
2022-10-06T13:21:49.177Z,101439.06
2022-10-06T13:24:20.483Z,101439.88
2022-10-06T13:26:49.141Z,101440.28
2022-10-06T13:29:22.419Z,101435.03
2022-10-06T13:31:53.023Z,101440.88
2022-10-06T13:34:29.749Z,101436.69
2022-10-06T13:36:59.755Z,101434.38
2022-10-06T13:39:31.543Z,101431.72
2022-10-06T13:42:03.278Z,101426.91
2022-10-06T13:44:37.870Z,101414.03
2022-10-06T13:47:08.754Z,101424.63
2022-10-06T13:49:48.576Z,101424.88
2022-10-06T13:52:18.642Z,101425.09
2022-10-06T13:54:51.708Z,101424.88
2022-10-06T13:57:39.136Z,101425.69
2022-10-06T14:00:17.627Z,101430.47
2022-10-06T14:02:47.072Z,101429.50
2022-10-06T14:05:31.449Z,101434.56
2022-10-06T14:08:01.357Z,101423.69
2022-10-06T14:10:33.431Z,101425.13
2022-10-06T14:13:02.268Z,101418.84
2022-10-06T14:15:37.350Z,101429.06
2022-10-06T14:18:06.068Z,101417.00
2022-10-06T14:20:46.968Z,101422.03
2022-10-06T14:23:41.283Z,101416.75
2022-10-06T14:26:11.230Z,101417.41
2022-10-06T14:28:48.488Z,101411.16
2022-10-06T14:31:19.589Z,101413.66
2022-10-06T14:33:48.509Z,101414.06
2022-10-06T14:36:22.847Z,101415.97
2022-10-06T14:38:52.073Z,101415.16
2022-10-06T14:41:24.756Z,101410.59
2022-10-06T14:43:55.999Z,101410.81
2022-10-06T14:46:28.319Z,101416.22
2022-10-06T14:48:56.587Z,101414.75
2022-10-06T14:51:34.671Z,101406.63
2022-10-06T14:54:06.133Z,101409.56
2022-10-06T14:56:35.477Z,101405.59
2022-10-06T14:59:06.015Z,101406.66
2022-10-06T15:01:35.829Z,101400.59
2022-10-06T15:04:05.734Z,101399.38
2022-10-06T15:06:52.287Z,101409.41
2022-10-06T15:09:19.979Z,101396.66
2022-10-06T15:11:47.886Z,101397.50
2022-10-06T15:14:15.535Z,101395.81
2022-10-06T15:16:44.515Z,101399.59
2022-10-06T15:19:12.959Z,101388.31
2022-10-06T15:21:45.182Z,101395.41
2022-10-06T15:24:15.371Z,101389.13
2022-10-06T15:27:01.342Z,101387.47
2022-10-06T15:29:29.345Z,101386.22
2022-10-06T15:31:58.554Z,101393.31
2022-10-06T15:34:28.360Z,101385.56
2022-10-06T15:36:58.785Z,101384.53
2022-10-06T15:39:28.252Z,101387.25
2022-10-06T15:41:57.280Z,101386.41
2022-10-06T15:44:25.055Z,101381.81
2022-10-06T15:46:55.429Z,101385.53
2022-10-06T15:49:25.250Z,101390.34
2022-10-06T15:51:54.402Z,101390.69
2022-10-06T15:54:24.976Z,101387.91
2022-10-06T15:56:54.302Z,101384.56
2022-10-06T15:59:24.097Z,101388.69
2022-10-06T16:01:56.094Z,101390.78
2022-10-06T16:04:32.268Z,101392.44
2022-10-06T16:07:00.208Z,101390.38
2022-10-06T16:09:35.432Z,101393.44
2022-10-06T16:12:06.007Z,101392.56
2022-10-06T16:14:33.991Z,101391.25
2022-10-06T16:17:04.067Z,101389.75
2022-10-06T16:19:36.654Z,101388.22
2022-10-06T16:22:05.698Z,101394.06
2022-10-06T16:24:35.165Z,101387.31
2022-10-06T16:27:03.119Z,101389.34
2022-10-06T16:29:34.551Z,101392.97
2022-10-06T16:32:02.418Z,101390.78
2022-10-06T16:34:31.587Z,101388.69
2022-10-06T16:36:59.497Z,101393.75
2022-10-06T16:39:27.143Z,101393.25
2022-10-06T16:41:56.156Z,101394.88
2022-10-06T16:44:23.819Z,101393.97
2022-10-06T16:46:51.495Z,101396.41
2022-10-06T16:49:19.645Z,101397.19
2022-10-06T16:51:47.252Z,101410.88
2022-10-06T16:54:17.050Z,101406.44
2022-10-06T16:56:46.584Z,101402.84
2022-10-06T16:59:17.274Z,101395.88
2022-10-06T17:01:45.412Z,101406.03
2022-10-06T17:04:14.604Z,101411.09
2022-10-06T17:06:45.291Z,101412.56
2022-10-06T17:09:14.867Z,101412.03
2022-10-06T17:11:43.994Z,101412.75
2022-10-06T17:14:12.318Z,101415.66
2022-10-06T17:16:43.888Z,101415.16
2022-10-06T17:19:13.248Z,101418.53
2022-10-06T17:21:46.596Z,101420.59
2022-10-06T17:24:17.469Z,101422.91
2022-10-06T17:26:46.913Z,101419.38
2022-10-06T17:29:17.486Z,101417.13
2022-10-06T17:31:47.763Z,101425.50
2022-10-06T17:34:20.653Z,101428.84
2022-10-06T17:36:51.243Z,101427.53
2022-10-06T17:39:21.055Z,101430.94
2022-10-06T17:41:50.176Z,101425.63
2022-10-06T17:44:22.533Z,101432.88
2022-10-06T17:46:53.767Z,101437.16
2022-10-06T17:49:22.551Z,101436.66
2022-10-06T17:51:51.703Z,101443.44
2022-10-06T17:54:21.679Z,101440.47
2022-10-06T17:56:51.387Z,101443.03
2022-10-06T17:59:24.801Z,101441.78
2022-10-06T18:01:57.106Z,101445.50
2022-10-06T18:04:26.037Z,101444.66
2022-10-06T18:06:54.837Z,101442.50
2022-10-06T18:09:23.012Z,101454.28
2022-10-06T18:11:54.998Z,101450.94
2022-10-06T18:14:24.474Z,101448.91
2022-10-06T18:16:56.645Z,101437.66
2022-10-06T18:19:26.565Z,101444.94
2022-10-06T18:21:56.560Z,101453.94
2022-10-06T18:24:26.267Z,101453.44
2022-10-06T18:26:56.117Z,101454.78
2022-10-06T18:29:25.914Z,101456.78
2022-10-06T18:32:15.022Z,101455.94
2022-10-06T18:37:32.925Z,101459.97
2022-10-06T18:40:02.388Z,101460.16
2022-10-06T18:42:30.124Z,101463.19
2022-10-06T18:45:15.253Z,101460.56
2022-10-06T18:48:02.127Z,101465.66
2022-10-06T18:50:32.913Z,101454.22
2022-10-06T18:53:00.854Z,101460.47
2022-10-06T18:55:29.775Z,101460.66
2022-10-06T18:57:57.623Z,101455.94
2022-10-06T19:00:26.469Z,101464.72
2022-10-06T19:02:56.687Z,101459.00
2022-10-06T19:05:24.519Z,101455.34
2022-10-06T19:07:54.131Z,101464.94
2022-10-06T19:10:22.052Z,101468.34
2022-10-06T19:12:52.649Z,101473.03
2022-10-06T19:15:21.452Z,101467.81
2022-10-06T19:17:49.654Z,101470.88
2022-10-06T19:20:19.114Z,101475.75
2022-10-06T19:22:50.758Z,101476.78
2022-10-06T19:25:19.257Z,101478.13
2022-10-06T19:27:48.106Z,101473.44
2022-10-06T19:30:18.399Z,101488.25
2022-10-06T19:32:46.091Z,101483.53
2022-10-06T19:35:13.754Z,101495.81
2022-10-06T19:37:42.963Z,101490.91
2022-10-06T19:40:11.637Z,101485.06
2022-10-06T19:42:47.513Z,101488.19
2022-10-06T19:45:15.921Z,101492.06
2022-10-06T19:47:44.975Z,101492.72
2022-10-06T19:50:13.611Z,101499.13
2022-10-06T19:52:42.720Z,101508.53
2022-10-06T19:55:10.343Z,101503.50
2022-10-06T19:57:38.029Z,101506.50
2022-10-06T20:00:07.188Z,101502.28
2022-10-06T20:02:37.455Z,101504.66
2022-10-06T20:05:09.700Z,101507.66
2022-10-06T20:07:37.374Z,101503.97
2022-10-06T20:10:07.135Z,101505.78
2022-10-06T20:12:35.983Z,101511.47
2022-10-06T20:15:03.777Z,101516.16
2022-10-06T20:17:31.481Z,101521.22
2022-10-06T20:19:59.205Z,101510.78
2022-10-06T20:22:27.326Z,101512.41
2022-10-06T20:24:54.997Z,101514.13
2022-10-06T20:27:23.977Z,101513.75
2022-10-06T20:29:51.552Z,101522.16
2022-10-06T20:32:19.106Z,101506.00
2022-10-06T20:34:46.731Z,101517.41
2022-10-06T20:37:14.415Z,101519.88
2022-10-06T20:39:59.619Z,101515.34
2022-10-06T20:42:28.572Z,101513.97
2022-10-06T20:44:56.239Z,101510.16
2022-10-06T20:47:23.840Z,101511.97
2022-10-06T20:49:54.841Z,101506.25
2022-10-06T20:52:23.114Z,101507.03
2022-10-06T20:54:51.177Z,101519.56
2022-10-06T20:57:18.840Z,101511.50
2022-10-06T20:59:48.988Z,101506.25
2022-10-06T21:02:17.192Z,101500.66
2022-10-06T21:04:45.221Z,101507.84
2022-10-06T21:07:13.057Z,101506.03
2022-10-06T21:09:41.147Z,101504.09
2022-10-06T21:12:09.018Z,101516.97
2022-10-06T21:14:37.607Z,101504.09
2022-10-06T21:17:06.832Z,101516.44
2022-10-06T21:19:37.876Z,101503.66
2022-10-06T21:22:07.003Z,101506.66
2022-10-06T21:24:34.777Z,101508.50
2022-10-06T21:27:03.229Z,101503.44
2022-10-06T21:29:31.035Z,101500.56
2022-10-06T21:31:58.832Z,101495.81
2022-10-06T21:34:28.045Z,101495.97
2022-10-06T21:36:56.052Z,101499.41
2022-10-06T21:39:23.920Z,101503.84
2022-10-06T21:41:51.739Z,101495.66
2022-10-06T21:44:20.208Z,101497.19
2022-10-06T21:46:49.794Z,101501.81
2022-10-06T21:49:20.058Z,101497.28
2022-10-06T21:51:51.159Z,101501.41
2022-10-06T21:54:20.092Z,101498.28
2022-10-06T21:56:48.062Z,101491.41
2022-10-06T21:59:16.127Z,101491.25
2022-10-06T22:01:45.758Z,101482.31
2022-10-06T22:04:15.194Z,101487.28
2022-10-06T22:06:44.643Z,101484.63
2022-10-06T22:09:16.552Z,101484.81
2022-10-06T22:11:44.709Z,101481.38
2022-10-06T22:14:14.900Z,101479.09
2022-10-06T22:16:43.717Z,101483.84
2022-10-06T22:19:13.332Z,101484.81
2022-10-06T22:21:43.381Z,101484.47
2022-10-06T22:24:15.468Z,101483.78
2022-10-06T22:26:44.559Z,101487.41
2022-10-06T22:29:14.089Z,101487.13
2022-10-06T22:31:44.546Z,101476.19
2022-10-06T22:34:14.849Z,101474.66
2022-10-06T22:36:43.091Z,101477.34
2022-10-06T22:39:11.156Z,101476.88
2022-10-06T22:41:40.415Z,101477.56
2022-10-06T22:44:08.426Z,101473.66
2022-10-06T22:46:37.890Z,101477.09
2022-10-06T22:49:06.658Z,101480.19
2022-10-06T22:51:34.681Z,101470.22
2022-10-06T22:54:03.184Z,101464.34
2022-10-06T22:56:32.989Z,101462.03
2022-10-06T22:59:02.429Z,101457.16
2022-10-06T23:01:30.742Z,101457.91
2022-10-06T23:03:58.863Z,101448.72
2022-10-06T23:06:26.920Z,101442.69
2022-10-06T23:08:54.892Z,101452.47
2022-10-06T23:11:23.274Z,101445.44
2022-10-06T23:13:53.456Z,101445.44
2022-10-06T23:16:25.033Z,101446.44
2022-10-06T23:18:55.245Z,101433.94
2022-10-06T23:21:27.584Z,101431.22
2022-10-06T23:23:58.000Z,101432.69
2022-10-06T23:26:26.582Z,101438.31
2022-10-06T23:28:56.749Z,101433.59
2022-10-06T23:31:26.498Z,101434.16
2022-10-06T23:33:55.499Z,101428.13
2022-10-06T23:36:23.281Z,101433.06
2022-10-06T23:38:51.180Z,101424.28
2022-10-06T23:41:19.555Z,101426.47
2022-10-06T23:43:47.519Z,101424.84
2022-10-06T23:46:15.613Z,101419.88
2022-10-06T23:48:44.788Z,101422.00
2022-10-06T23:51:14.310Z,101421.31
2022-10-06T23:53:43.136Z,101422.69
2022-10-06T23:56:11.301Z,101420.47
2022-10-06T23:58:39.335Z,101412.63
